Bugra Tomba — TCEJ — position and weather

sailwx.info

Track history (hours):
 
Tides and Currents Weather Stations Pressure Air Temp Water Temp Dewpoint Dewpoint Depression Visibility Wind Speed Wind Dir Waves Ship Positions

Bugra Tomba

Last reported at 2016-May-04 14:33 UTC. Time now 2016-May-04 15:32 UTC.
Position N 32°51' E 035°00'.

Length 99 m; draft 6.2 m.

Type: Cargo ship. MMSI: 271000025.

Date/timePositionNaut miles runAvg speedWind from/ knotsBaromVisibWave heightAir tempDewpointWater temp
2016-May-04 14:33N 32°51' E 035°00'0 0.0
2016-May-04 13:33N 32°51' E 035°00'0 0.0
2016-May-04 12:33N 32°51' E 035°00'0 0.0
2016-May-04 11:33N 32°51' E 034°60'0 0.0
2016-May-04 10:33N 32°51' E 035°00'0 0.0
2016-May-04 09:33N 32°51' E 034°60'0 0.0
2016-May-04 08:33N 32°51' E 035°00'0 0.0
2016-May-04 07:33N 32°51' E 035°00'0 0.0
2016-May-04 06:33N 32°51' E 035°00'0 0.0
2016-May-04 05:33N 32°51' E 035°00'0 0.0
2016-May-04 04:33N 32°51' E 035°00'0 0.0
2016-May-04 03:33N 32°51' E 034°60'0 0.0
2016-May-04 02:33N 32°51' E 034°60'0 0.0
2016-May-04 01:33N 32°51' E 035°00'0 0.0
2016-May-04 00:33N 32°51' E 035°00'0 0.0
2016-May-03 23:33N 32°51' E 035°00'0 0.1
2016-May-03 22:33N 32°51' E 034°60'0 0.1
2016-May-03 21:33N 32°51' E 034°60'0 0.1
2016-May-03 20:33N 32°51' E 034°60'0 0.0
2016-May-03 19:33N 32°51' E 034°60'0 0.0
2016-May-03 18:33N 32°51' E 034°60'0 0.0
2016-May-03 17:33N 32°51' E 034°60'0 0.0
2016-May-03 16:33N 32°51' E 034°60'0 0.0
2016-May-03 15:33N 32°51' E 034°60'0 0.0
2016-May-03 14:33N 32°51' E 034°60'0 0.0
2016-May-03 13:33N 32°51' E 034°60'0 0.0
2016-May-03 12:33N 32°51' E 034°60'0 0.0
2016-May-03 11:33N 32°51' E 034°60'0 0.0
2016-May-03 10:33N 32°51' E 034°60'0 0.0
2016-May-03 09:33N 32°51' E 034°60'0 0.0
2016-May-03 08:33N 32°51' E 034°60'0 0.1
2016-May-03 07:33N 32°51' E 034°60'0 0.0
2016-May-03 06:33N 32°51' E 034°60'0 0.0
2016-May-03 05:33N 32°51' E 034°60'0 0.0
2016-May-03 04:33N 32°51' E 035°00'0 0.1
2016-May-03 03:33N 32°51' E 034°60'0 0.0
2016-May-02 23:15N 32°51' E 034°60'0 0.0
2016-May-02 22:33N 32°51' E 035°00'0 0.0
2016-May-02 21:33N 32°51' E 035°00'0 0.0
2016-May-02 20:33N 32°51' E 035°00'0 0.0
2016-May-02 19:33N 32°51' E 034°60'0 0.0
2016-May-02 18:33N 32°51' E 034°60'0 0.0
2016-May-02 17:33N 32°51' E 034°60'0 0.0
2016-May-02 16:33N 32°51' E 034°60'0 0.0
2016-May-02 15:33N 32°51' E 035°00'0 0.0
2016-May-02 14:33N 32°51' E 035°00'0 0.0
2016-May-02 13:33N 32°51' E 035°00'0 0.0
2016-May-02 12:33N 32°51' E 035°00'0 0.0
2016-May-02 11:33N 32°51' E 035°00'0 0.0
2016-May-02 10:33N 32°51' E 035°00'0 0.0
2016-May-02 09:33N 32°51' E 035°00'0 0.0
2016-May-02 08:33N 32°51' E 035°00'0 0.0
2016-May-02 07:33N 32°51' E 035°00'0 0.0
2016-May-02 06:33N 32°51' E 034°60'0 0.0
2016-May-02 05:33N 32°51' E 034°60'0 0.0
2016-May-02 04:33N 32°51' E 034°60'0 0.0
2016-May-02 03:33N 32°51' E 034°60'2 1.7
2016-May-02 02:33N 32°52' E 034°59'122 7.9
2016-May-01 11:04N 33°50' E 032°49'4 7.8
2016-May-01 10:33N 33°52' E 032°46'8 7.7
2016-May-01 09:32N 33°57' E 032°38'8 7.4
2016-May-01 08:25N 34°01' E 032°29'43 7.4
2016-May-01 02:33N 34°28' E 031°48'23 7.7
2016-Apr-30 23:33N 34°42' E 031°26'7 7.5
2016-Apr-30 22:33N 34°47' E 031°19'97 8.1
2016-Apr-30 10:33N 35°51' E 029°49'194 7.5
2016-Apr-29 08:33N 37°44' E 026°31'  
2016-Apr-26 14:26N 40°40' E 028°48'8 8.7
2016-Apr-26 13:33N 40°42' E 028°58'8 8.5
2016-Apr-26 12:34N 40°43' E 029°09'9 8.8
2016-Apr-26 11:33N 40°44' E 029°21'8 7.2
2016-Apr-26 10:29N 40°45' E 029°31'  
Track history (hours):
 
Tides and Currents Weather Stations Pressure Air Temp Water Temp Dewpoint Dewpoint Depression Visibility Wind Speed Wind Dir Waves Ship Positions

Bugra Tomba

Last reported at 2016-May-04 14:33 UTC. Time now 2016-May-04 15:32 UTC.
Position N 32°51' E 035°00'.

Length 99 m; draft 6.2 m.

Type: Cargo ship. MMSI: 271000025.

Date/timePositionNaut miles runAvg speedWind from/ knotsBaromVisibWave heightAir tempDewpointWater temp
2016-May-04 14:33N 32°51' E 035°00'0 0.0
2016-May-04 13:33N 32°51' E 035°00'0 0.0
2016-May-04 12:33N 32°51' E 035°00'0 0.0
2016-May-04 11:33N 32°51' E 034°60'0 0.0
2016-May-04 10:33N 32°51' E 035°00'0 0.0
2016-May-04 09:33N 32°51' E 034°60'0 0.0
2016-May-04 08:33N 32°51' E 035°00'0 0.0
2016-May-04 07:33N 32°51' E 035°00'0 0.0
2016-May-04 06:33N 32°51' E 035°00'0 0.0
2016-May-04 05:33N 32°51' E 035°00'0 0.0
2016-May-04 04:33N 32°51' E 035°00'0 0.0
2016-May-04 03:33N 32°51' E 034°60'0 0.0
2016-May-04 02:33N 32°51' E 034°60'0 0.0
2016-May-04 01:33N 32°51' E 035°00'0 0.0
2016-May-04 00:33N 32°51' E 035°00'0 0.0
2016-May-03 23:33N 32°51' E 035°00'0 0.1
2016-May-03 22:33N 32°51' E 034°60'0 0.1
2016-May-03 21:33N 32°51' E 034°60'0 0.1
2016-May-03 20:33N 32°51' E 034°60'0 0.0
2016-May-03 19:33N 32°51' E 034°60'0 0.0
2016-May-03 18:33N 32°51' E 034°60'0 0.0
2016-May-03 17:33N 32°51' E 034°60'0 0.0
2016-May-03 16:33N 32°51' E 034°60'0 0.0
2016-May-03 15:33N 32°51' E 034°60'0 0.0
2016-May-03 14:33N 32°51' E 034°60'0 0.0
2016-May-03 13:33N 32°51' E 034°60'0 0.0
2016-May-03 12:33N 32°51' E 034°60'0 0.0
2016-May-03 11:33N 32°51' E 034°60'0 0.0
2016-May-03 10:33N 32°51' E 034°60'0 0.0
2016-May-03 09:33N 32°51' E 034°60'0 0.0
2016-May-03 08:33N 32°51' E 034°60'0 0.1
2016-May-03 07:33N 32°51' E 034°60'0 0.0
2016-May-03 06:33N 32°51' E 034°60'0 0.0
2016-May-03 05:33N 32°51' E 034°60'0 0.0
2016-May-03 04:33N 32°51' E 035°00'0 0.1
2016-May-03 03:33N 32°51' E 034°60'0 0.0
2016-May-02 23:15N 32°51' E 034°60'0 0.0
2016-May-02 22:33N 32°51' E 035°00'0 0.0
2016-May-02 21:33N 32°51' E 035°00'0 0.0
2016-May-02 20:33N 32°51' E 035°00'0 0.0
2016-May-02 19:33N 32°51' E 034°60'0 0.0
2016-May-02 18:33N 32°51' E 034°60'0 0.0
2016-May-02 17:33N 32°51' E 034°60'0 0.0
2016-May-02 16:33N 32°51' E 034°60'0 0.0
2016-May-02 15:33N 32°51' E 035°00'0 0.0
2016-May-02 14:33N 32°51' E 035°00'0 0.0
2016-May-02 13:33N 32°51' E 035°00'0 0.0
2016-May-02 12:33N 32°51' E 035°00'0 0.0
2016-May-02 11:33N 32°51' E 035°00'0 0.0
2016-May-02 10:33N 32°51' E 035°00'0 0.0
2016-May-02 09:33N 32°51' E 035°00'0 0.0
2016-May-02 08:33N 32°51' E 035°00'0 0.0
2016-May-02 07:33N 32°51' E 035°00'0 0.0
2016-May-02 06:33N 32°51' E 034°60'0 0.0
2016-May-02 05:33N 32°51' E 034°60'0 0.0
2016-May-02 04:33N 32°51' E 034°60'0 0.0
2016-May-02 03:33N 32°51' E 034°60'2 1.7
2016-May-02 02:33N 32°52' E 034°59'122 7.9
2016-May-01 11:04N 33°50' E 032°49'4 7.8
2016-May-01 10:33N 33°52' E 032°46'8 7.7
2016-May-01 09:32N 33°57' E 032°38'8 7.4
2016-May-01 08:25N 34°01' E 032°29'43 7.4
2016-May-01 02:33N 34°28' E 031°48'23 7.7
2016-Apr-30 23:33N 34°42' E 031°26'7 7.5
2016-Apr-30 22:33N 34°47' E 031°19'97 8.1
2016-Apr-30 10:33N 35°51' E 029°49'194 7.5
2016-Apr-29 08:33N 37°44' E 026°31'  
2016-Apr-26 14:26N 40°40' E 028°48'8 8.7
2016-Apr-26 13:33N 40°42' E 028°58'8 8.5
2016-Apr-26 12:34N 40°43' E 029°09'9 8.8
2016-Apr-26 11:33N 40°44' E 029°21'8 7.2
2016-Apr-26 10:29N 40°45' E 029°31'  

Dump ship's entire track history